sensor_id;sensor_type;location;lat;lon;timestamp;pressure;altitude;pressure_sealevel;temperature
20730;BMP280;10526;50.850;12.928;2023-02-03T00:01:41;98546.66;;;2.25
20730;BMP280;10526;50.850;12.928;2023-02-03T00:06:03;98523.22;;;2.19
20730;BMP280;10526;50.850;12.928;2023-02-03T00:10:25;98526.13;;;2.18
20730;BMP280;10526;50.850;12.928;2023-02-03T00:14:48;98526.34;;;2.13
20730;BMP280;10526;50.850;12.928;2023-02-03T00:19:10;98515.69;;;2.09
20730;BMP280;10526;50.850;12.928;2023-02-03T00:23:33;98513.56;;;2.03
20730;BMP280;10526;50.850;12.928;2023-02-03T00:27:55;98498.31;;;1.96
20730;BMP280;10526;50.850;12.928;2023-02-03T00:32:17;98493.44;;;1.86
20730;BMP280;10526;50.850;12.928;2023-02-03T00:36:40;98480.94;;;1.83
20730;BMP280;10526;50.850;12.928;2023-02-03T00:41:05;98473.06;;;1.83
20730;BMP280;10526;50.850;12.928;2023-02-03T00:45:27;98477.56;;;1.82
20730;BMP280;10526;50.850;12.928;2023-02-03T00:49:50;98468.00;;;1.78
20730;BMP280;10526;50.850;12.928;2023-02-03T00:54:12;98462.78;;;1.69
20730;BMP280;10526;50.850;12.928;2023-02-03T00:58:35;98451.88;;;1.58
20730;BMP280;10526;50.850;12.928;2023-02-03T01:02:57;98444.94;;;1.54
20730;BMP280;10526;50.850;12.928;2023-02-03T01:07:19;98438.50;;;1.51
20730;BMP280;10526;50.850;12.928;2023-02-03T01:11:42;98430.75;;;1.55
20730;BMP280;10526;50.850;12.928;2023-02-03T01:16:13;98410.66;;;1.59
20730;BMP280;10526;50.850;12.928;2023-02-03T01:20:35;98389.47;;;1.64
20730;BMP280;10526;50.850;12.928;2023-02-03T01:24:57;98373.53;;;1.69
20730;BMP280;10526;50.850;12.928;2023-02-03T01:29:19;98365.59;;;1.78
20730;BMP280;10526;50.850;12.928;2023-02-03T01:33:44;98360.72;;;1.88
20730;BMP280;10526;50.850;12.928;2023-02-03T01:38:09;98367.44;;;1.98
20730;BMP280;10526;50.850;12.928;2023-02-03T01:42:32;98346.81;;;2.09
20730;BMP280;10526;50.850;12.928;2023-02-03T01:46:55;98343.75;;;2.19
20730;BMP280;10526;50.850;12.928;2023-02-03T01:51:16;98342.69;;;2.32
20730;BMP280;10526;50.850;12.928;2023-02-03T01:55:43;98346.13;;;2.45
20730;BMP280;10526;50.850;12.928;2023-02-03T02:00:08;98328.41;;;2.54
20730;BMP280;10526;50.850;12.928;2023-02-03T02:09:28;98312.88;;;2.61
20730;BMP280;10526;50.850;12.928;2023-02-03T02:13:53;98304.84;;;2.70
20730;BMP280;10526;50.850;12.928;2023-02-03T02:18:43;98322.06;;;2.80
20730;BMP280;10526;50.850;12.928;2023-02-03T02:23:40;98324.25;;;2.90
20730;BMP280;10526;50.850;12.928;2023-02-03T02:42:19;98295.19;;;3.23
20730;BMP280;10526;50.850;12.928;2023-02-03T02:46:51;98293.16;;;3.32
20730;BMP280;10526;50.850;12.928;2023-02-03T02:51:15;98286.66;;;3.42
20730;BMP280;10526;50.850;12.928;2023-02-03T02:55:40;98286.88;;;3.49
20730;BMP280;10526;50.850;12.928;2023-02-03T03:00:04;98276.09;;;3.54
20730;BMP280;10526;50.850;12.928;2023-02-03T03:04:31;98265.41;;;3.63
20730;BMP280;10526;50.850;12.928;2023-02-03T03:09:06;98254.22;;;3.66
20730;BMP280;10526;50.850;12.928;2023-02-03T03:13:39;98264.16;;;3.72
20730;BMP280;10526;50.850;12.928;2023-02-03T03:22:43;98261.69;;;3.80
20730;BMP280;10526;50.850;12.928;2023-02-03T03:27:17;98269.69;;;3.83
20730;BMP280;10526;50.850;12.928;2023-02-03T03:31:40;98260.00;;;3.87
20730;BMP280;10526;50.850;12.928;2023-02-03T03:36:25;98257.06;;;3.89
20730;BMP280;10526;50.850;12.928;2023-02-03T03:40:55;98250.00;;;3.93
20730;BMP280;10526;50.850;12.928;2023-02-03T03:45:34;98248.97;;;3.97
20730;BMP280;10526;50.850;12.928;2023-02-03T03:50:01;98262.25;;;4.01
20730;BMP280;10526;50.850;12.928;2023-02-03T03:54:25;98261.56;;;4.04
20730;BMP280;10526;50.850;12.928;2023-02-03T03:58:51;98247.03;;;4.10
20730;BMP280;10526;50.850;12.928;2023-02-03T04:03:46;98235.81;;;4.13
20730;BMP280;10526;50.850;12.928;2023-02-03T04:08:09;98220.88;;;4.17
20730;BMP280;10526;50.850;12.928;2023-02-03T04:12:31;98190.41;;;4.20
20730;BMP280;10526;50.850;12.928;2023-02-03T04:16:53;98196.84;;;4.22
20730;BMP280;10526;50.850;12.928;2023-02-03T04:21:15;98189.03;;;4.26
20730;BMP280;10526;50.850;12.928;2023-02-03T04:25:37;98169.56;;;4.31
20730;BMP280;10526;50.850;12.928;2023-02-03T04:30:00;98148.63;;;4.38
20730;BMP280;10526;50.850;12.928;2023-02-03T04:34:21;98147.59;;;4.42
20730;BMP280;10526;50.850;12.928;2023-02-03T04:38:44;98160.41;;;4.44
20730;BMP280;10526;50.850;12.928;2023-02-03T04:43:07;98172.25;;;4.50
20730;BMP280;10526;50.850;12.928;2023-02-03T04:47:29;98185.94;;;4.56
20730;BMP280;10526;50.850;12.928;2023-02-03T04:51:51;98169.88;;;4.64
20730;BMP280;10526;50.850;12.928;2023-02-03T04:56:14;98195.75;;;4.74
20730;BMP280;10526;50.850;12.928;2023-02-03T05:00:36;98189.47;;;4.83
20730;BMP280;10526;50.850;12.928;2023-02-03T05:04:59;98171.94;;;4.90
20730;BMP280;10526;50.850;12.928;2023-02-03T05:09:22;98198.41;;;4.94
20730;BMP280;10526;50.850;12.928;2023-02-03T05:13:44;98186.84;;;5.02
20730;BMP280;10526;50.850;12.928;2023-02-03T05:18:07;98178.69;;;5.07
20730;BMP280;10526;50.850;12.928;2023-02-03T05:22:29;98160.19;;;5.07
20730;BMP280;10526;50.850;12.928;2023-02-03T05:26:51;98162.75;;;5.03
20730;BMP280;10526;50.850;12.928;2023-02-03T05:31:13;98145.66;;;4.97
20730;BMP280;10526;50.850;12.928;2023-02-03T05:35:36;98143.38;;;4.96
20730;BMP280;10526;50.850;12.928;2023-02-03T05:39:58;98131.22;;;4.91
20730;BMP280;10526;50.850;12.928;2023-02-03T05:44:40;98133.09;;;4.91
20730;BMP280;10526;50.850;12.928;2023-02-03T05:49:02;98139.50;;;4.90
20730;BMP280;10526;50.850;12.928;2023-02-03T05:53:25;98134.22;;;4.90
20730;BMP280;10526;50.850;12.928;2023-02-03T05:57:48;98131.50;;;4.86
20730;BMP280;10526;50.850;12.928;2023-02-03T06:02:10;98138.75;;;4.89
20730;BMP280;10526;50.850;12.928;2023-02-03T06:06:32;98141.03;;;4.91
20730;BMP280;10526;50.850;12.928;2023-02-03T06:10:57;98141.03;;;4.91
20730;BMP280;10526;50.850;12.928;2023-02-03T06:15:20;98141.09;;;4.94
20730;BMP280;10526;50.850;12.928;2023-02-03T06:19:42;98133.66;;;5.00
20730;BMP280;10526;50.850;12.928;2023-02-03T06:24:04;98115.94;;;5.00
20730;BMP280;10526;50.850;12.928;2023-02-03T06:28:27;98116.34;;;5.02
20730;BMP280;10526;50.850;12.928;2023-02-03T06:32:50;98109.97;;;5.03
20730;BMP280;10526;50.850;12.928;2023-02-03T06:37:13;98100.94;;;5.04
20730;BMP280;10526;50.850;12.928;2023-02-03T06:41:35;98087.06;;;5.08
20730;BMP280;10526;50.850;12.928;2023-02-03T06:45:58;98083.69;;;5.11
20730;BMP280;10526;50.850;12.928;2023-02-03T06:50:20;98081.84;;;5.11
20730;BMP280;10526;50.850;12.928;2023-02-03T06:54:42;98080.69;;;5.12
20730;BMP280;10526;50.850;12.928;2023-02-03T06:59:04;98085.69;;;5.17
20730;BMP280;10526;50.850;12.928;2023-02-03T07:03:27;98067.63;;;5.19
20730;BMP280;10526;50.850;12.928;2023-02-03T07:07:51;98073.38;;;5.25
20730;BMP280;10526;50.850;12.928;2023-02-03T07:12:13;98061.00;;;5.29
20730;BMP280;10526;50.850;12.928;2023-02-03T07:16:35;98059.53;;;5.32
20730;BMP280;10526;50.850;12.928;2023-02-03T07:20:58;98040.75;;;5.37
20730;BMP280;10526;50.850;12.928;2023-02-03T07:25:21;98034.81;;;5.43
20730;BMP280;10526;50.850;12.928;2023-02-03T07:29:44;98039.00;;;5.48
20730;BMP280;10526;50.850;12.928;2023-02-03T07:34:06;98031.47;;;5.46
20730;BMP280;10526;50.850;12.928;2023-02-03T07:38:28;98041.63;;;5.44
20730;BMP280;10526;50.850;12.928;2023-02-03T07:42:52;98027.97;;;5.39
20730;BMP280;10526;50.850;12.928;2023-02-03T07:47:14;98019.97;;;5.35
20730;BMP280;10526;50.850;12.928;2023-02-03T07:51:36;98012.81;;;5.36
20730;BMP280;10526;50.850;12.928;2023-02-03T07:56:03;98011.31;;;5.35
20730;BMP280;10526;50.850;12.928;2023-02-03T08:00:26;98016.59;;;5.35
20730;BMP280;10526;50.850;12.928;2023-02-03T08:04:49;98024.91;;;5.37
20730;BMP280;10526;50.850;12.928;2023-02-03T08:09:11;98025.72;;;5.41
20730;BMP280;10526;50.850;12.928;2023-02-03T08:13:33;97996.38;;;5.46
20730;BMP280;10526;50.850;12.928;2023-02-03T08:17:55;98008.06;;;5.45
20730;BMP280;10526;50.850;12.928;2023-02-03T08:22:17;97998.63;;;5.44
20730;BMP280;10526;50.850;12.928;2023-02-03T08:26:40;97986.16;;;5.44
20730;BMP280;10526;50.850;12.928;2023-02-03T08:31:08;97987.66;;;5.42
20730;BMP280;10526;50.850;12.928;2023-02-03T08:35:31;97977.47;;;5.44
20730;BMP280;10526;50.850;12.928;2023-02-03T08:39:53;97988.06;;;5.47
20730;BMP280;10526;50.850;12.928;2023-02-03T08:44:15;97976.81;;;5.50
20730;BMP280;10526;50.850;12.928;2023-02-03T08:48:39;97969.69;;;5.54
20730;BMP280;10526;50.850;12.928;2023-02-03T08:53:02;97955.03;;;5.57
20730;BMP280;10526;50.850;12.928;2023-02-03T08:57:24;97966.69;;;5.56
20730;BMP280;10526;50.850;12.928;2023-02-03T09:01:45;97964.88;;;5.60
20730;BMP280;10526;50.850;12.928;2023-02-03T09:06:09;97951.78;;;5.71
20730;BMP280;10526;50.850;12.928;2023-02-03T09:10:33;97955.31;;;5.82
20730;BMP280;10526;50.850;12.928;2023-02-03T09:14:56;97936.56;;;5.91
20730;BMP280;10526;50.850;12.928;2023-02-03T09:19:19;97943.47;;;6.02
20730;BMP280;10526;50.850;12.928;2023-02-03T09:23:41;97921.63;;;6.09
20730;BMP280;10526;50.850;12.928;2023-02-03T09:28:04;97905.16;;;6.19
20730;BMP280;10526;50.850;12.928;2023-02-03T09:32:25;97899.94;;;6.26
20730;BMP280;10526;50.850;12.928;2023-02-03T09:36:48;97891.66;;;6.31
20730;BMP280;10526;50.850;12.928;2023-02-03T09:50:34;97875.16;;;6.45
20730;BMP280;10526;50.850;12.928;2023-02-03T09:59:36;97875.97;;;6.53
20730;BMP280;10526;50.850;12.928;2023-02-03T10:04:18;97872.19;;;6.54
20730;BMP280;10526;50.850;12.928;2023-02-03T10:09:07;97859.34;;;6.56
20730;BMP280;10526;50.850;12.928;2023-02-03T10:13:48;97868.03;;;6.56
20730;BMP280;10526;50.850;12.928;2023-02-03T10:18:20;97854.84;;;6.60
20730;BMP280;10526;50.850;12.928;2023-02-03T10:23:09;97850.31;;;6.64
20730;BMP280;10526;50.850;12.928;2023-02-03T10:27:35;97832.22;;;6.70
20730;BMP280;10526;50.850;12.928;2023-02-03T10:31:58;97827.69;;;6.70
20730;BMP280;10526;50.850;12.928;2023-02-03T10:41:05;97848.75;;;6.56
20730;BMP280;10526;50.850;12.928;2023-02-03T10:45:36;97808.91;;;6.31
20730;BMP280;10526;50.850;12.928;2023-02-03T10:50:05;97783.50;;;6.16
20730;BMP280;10526;50.850;12.928;2023-02-03T10:54:31;97759.22;;;6.06
20730;BMP280;10526;50.850;12.928;2023-02-03T10:58:56;97766.69;;;5.94
20730;BMP280;10526;50.850;12.928;2023-02-03T11:03:27;97763.28;;;5.90
20730;BMP280;10526;50.850;12.928;2023-02-03T11:07:50;97768.16;;;5.88
20730;BMP280;10526;50.850;12.928;2023-02-03T11:12:17;97799.09;;;5.87
20730;BMP280;10526;50.850;12.928;2023-02-03T11:16:39;97794.59;;;5.91
20730;BMP280;10526;50.850;12.928;2023-02-03T11:21:39;97767.09;;;5.96
20730;BMP280;10526;50.850;12.928;2023-02-03T11:26:11;97764.44;;;5.96
20730;BMP280;10526;50.850;12.928;2023-02-03T11:30:35;97753.09;;;5.92
20730;BMP280;10526;50.850;12.928;2023-02-03T11:35:04;97771.97;;;5.94
20730;BMP280;10526;50.850;12.928;2023-02-03T11:39:35;97742.50;;;5.92
20730;BMP280;10526;50.850;12.928;2023-02-03T11:43:58;97747.78;;;5.88
20730;BMP280;10526;50.850;12.928;2023-02-03T11:49:01;97734.16;;;5.86
20730;BMP280;10526;50.850;12.928;2023-02-03T12:08:40;97725.97;;;6.02
20730;BMP280;10526;50.850;12.928;2023-02-03T12:23:11;97722.34;;;6.24
20730;BMP280;10526;50.850;12.928;2023-02-03T12:38:16;97732.97;;;6.28
20730;BMP280;10526;50.850;12.928;2023-02-03T12:43:33;97719.75;;;6.28
20730;BMP280;10526;50.850;12.928;2023-02-03T12:52:20;97694.84;;;6.32
20730;BMP280;10526;50.850;12.928;2023-02-03T12:56:46;97683.13;;;6.37
20730;BMP280;10526;50.850;12.928;2023-02-03T13:01:47;97685.41;;;6.39
20730;BMP280;10526;50.850;12.928;2023-02-03T13:06:33;97674.13;;;6.42
20730;BMP280;10526;50.850;12.928;2023-02-03T13:11:19;97655.97;;;6.44
20730;BMP280;10526;50.850;12.928;2023-02-03T13:15:46;97676.38;;;6.43
20730;BMP280;10526;50.850;12.928;2023-02-03T13:20:26;97692.22;;;6.40
20730;BMP280;10526;50.850;12.928;2023-02-03T13:30:25;97729.69;;;6.45
20730;BMP280;10526;50.850;12.928;2023-02-03T13:45:37;97733.53;;;6.58
20730;BMP280;10526;50.850;12.928;2023-02-03T13:50:14;97727.47;;;6.58
20730;BMP280;10526;50.850;12.928;2023-02-03T13:54:42;97724.09;;;6.68
20730;BMP280;10526;50.850;12.928;2023-02-03T14:26:35;97748.41;;;6.88
20730;BMP280;10526;50.850;12.928;2023-02-03T14:31:12;97718.19;;;6.96
20730;BMP280;10526;50.850;12.928;2023-02-03T14:35:38;97759.81;;;7.03
20730;BMP280;10526;50.850;12.928;2023-02-03T14:59:53;97773.41;;;6.98
20730;BMP280;10526;50.850;12.928;2023-02-03T15:08:47;97792.34;;;7.03
20730;BMP280;10526;50.850;12.928;2023-02-03T15:13:30;97790.78;;;7.02
20730;BMP280;10526;50.850;12.928;2023-02-03T15:17:58;97811.97;;;6.99
20730;BMP280;10526;50.850;12.928;2023-02-03T15:22:27;97811.56;;;6.93
20730;BMP280;10526;50.850;12.928;2023-02-03T15:26:55;97808.13;;;6.85
20730;BMP280;10526;50.850;12.928;2023-02-03T15:35:55;97826.25;;;6.80
20730;BMP280;10526;50.850;12.928;2023-02-03T15:40:22;97829.66;;;6.80
20730;BMP280;10526;50.850;12.928;2023-02-03T15:45:17;97842.88;;;6.80
20730;BMP280;10526;50.850;12.928;2023-02-03T15:49:37;97854.56;;;6.72
20730;BMP280;10526;50.850;12.928;2023-02-03T15:58:43;97867.28;;;6.56
20730;BMP280;10526;50.850;12.928;2023-02-03T16:03:18;97871.78;;;6.52
20730;BMP280;10526;50.850;12.928;2023-02-03T16:07:42;97876.69;;;6.50
20730;BMP280;10526;50.850;12.928;2023-02-03T16:16:53;97894.06;;;6.47
20730;BMP280;10526;50.850;12.928;2023-02-03T16:26:18;97907.25;;;6.44
20730;BMP280;10526;50.850;12.928;2023-02-03T16:31:12;97889.88;;;6.43
20730;BMP280;10526;50.850;12.928;2023-02-03T16:35:56;97889.50;;;6.44
20730;BMP280;10526;50.850;12.928;2023-02-03T16:40:37;97890.22;;;6.41
20730;BMP280;10526;50.850;12.928;2023-02-03T16:45:19;97894.75;;;6.41
20730;BMP280;10526;50.850;12.928;2023-02-03T16:50:00;97902.28;;;6.39
20730;BMP280;10526;50.850;12.928;2023-02-03T16:54:58;97910.22;;;6.39
20730;BMP280;10526;50.850;12.928;2023-02-03T16:59:20;97923.78;;;6.37
20730;BMP280;10526;50.850;12.928;2023-02-03T17:03:43;97914.38;;;6.40
20730;BMP280;10526;50.850;12.928;2023-02-03T17:08:06;97926.13;;;6.42
20730;BMP280;10526;50.850;12.928;2023-02-03T17:12:28;97923.53;;;6.46
20730;BMP280;10526;50.850;12.928;2023-02-03T17:16:52;97919.34;;;6.48
20730;BMP280;10526;50.850;12.928;2023-02-03T17:21:27;97935.63;;;6.50
20730;BMP280;10526;50.850;12.928;2023-02-03T17:25:50;97951.50;;;6.47
20730;BMP280;10526;50.850;12.928;2023-02-03T17:30:13;97943.56;;;6.47
20730;BMP280;10526;50.850;12.928;2023-02-03T17:34:35;97951.09;;;6.48
20730;BMP280;10526;50.850;12.928;2023-02-03T17:38:59;97955.63;;;6.44
20730;BMP280;10526;50.850;12.928;2023-02-03T17:43:40;97968.09;;;6.44
20730;BMP280;10526;50.850;12.928;2023-02-03T17:48:20;97987.31;;;6.41
20730;BMP280;10526;50.850;12.928;2023-02-03T17:53:01;97997.91;;;6.41
20730;BMP280;10526;50.850;12.928;2023-02-03T17:57:25;98011.84;;;6.38
20730;BMP280;10526;50.850;12.928;2023-02-03T18:01:47;98020.13;;;6.36
20730;BMP280;10526;50.850;12.928;2023-02-03T18:06:11;98025.41;;;6.32
20730;BMP280;10526;50.850;12.928;2023-02-03T18:10:34;98029.13;;;6.28
20730;BMP280;10526;50.850;12.928;2023-02-03T18:14:56;98048.00;;;6.26
20730;BMP280;10526;50.850;12.928;2023-02-03T18:19:19;98062.31;;;6.25
20730;BMP280;10526;50.850;12.928;2023-02-03T18:23:42;98057.34;;;6.20
20730;BMP280;10526;50.850;12.928;2023-02-03T18:28:04;98074.44;;;6.26
20730;BMP280;10526;50.850;12.928;2023-02-03T18:32:26;98076.31;;;6.26
20730;BMP280;10526;50.850;12.928;2023-02-03T18:36:48;98091.03;;;6.23
20730;BMP280;10526;50.850;12.928;2023-02-03T18:41:20;98081.97;;;6.24
20730;BMP280;10526;50.850;12.928;2023-02-03T18:45:43;98097.06;;;6.24
20730;BMP280;10526;50.850;12.928;2023-02-03T18:50:05;98098.94;;;6.20
20730;BMP280;10526;50.850;12.928;2023-02-03T18:54:27;98104.56;;;6.18
20730;BMP280;10526;50.850;12.928;2023-02-03T18:58:51;98101.53;;;6.16
20730;BMP280;10526;50.850;12.928;2023-02-03T19:03:13;98087.47;;;6.12
20730;BMP280;10526;50.850;12.928;2023-02-03T19:07:35;98101.41;;;6.09
20730;BMP280;10526;50.850;12.928;2023-02-03T19:11:58;98104.47;;;6.11
20730;BMP280;10526;50.850;12.928;2023-02-03T19:16:21;98102.53;;;6.08
20730;BMP280;10526;50.850;12.928;2023-02-03T19:20:43;98113.44;;;6.06
20730;BMP280;10526;50.850;12.928;2023-02-03T19:25:05;98114.22;;;6.07
20730;BMP280;10526;50.850;12.928;2023-02-03T19:29:28;98127.47;;;6.11
20730;BMP280;10526;50.850;12.928;2023-02-03T19:33:50;98126.72;;;6.10
20730;BMP280;10526;50.850;12.928;2023-02-03T19:38:12;98133.50;;;6.07
20730;BMP280;10526;50.850;12.928;2023-02-03T19:42:34;98147.78;;;6.03
20730;BMP280;10526;50.850;12.928;2023-02-03T19:46:56;98144.31;;;5.99
20730;BMP280;10526;50.850;12.928;2023-02-03T19:51:18;98140.09;;;5.94
20730;BMP280;10526;50.850;12.928;2023-02-03T19:55:44;98127.97;;;5.90
20730;BMP280;10526;50.850;12.928;2023-02-03T20:00:08;98130.97;;;5.88
20730;BMP280;10526;50.850;12.928;2023-02-03T20:04:40;98132.06;;;5.87
20730;BMP280;10526;50.850;12.928;2023-02-03T20:09:03;98150.81;;;5.78
20730;BMP280;10526;50.850;12.928;2023-02-03T20:13:27;98158.75;;;5.55
20730;BMP280;10526;50.850;12.928;2023-02-03T20:17:49;98167.31;;;5.26
20730;BMP280;10526;50.850;12.928;2023-02-03T20:22:11;98173.50;;;5.14
20730;BMP280;10526;50.850;12.928;2023-02-03T20:26:33;98168.53;;;5.09
20730;BMP280;10526;50.850;12.928;2023-02-03T20:30:59;98168.72;;;5.00
20730;BMP280;10526;50.850;12.928;2023-02-03T20:35:23;98170.06;;;4.91
20730;BMP280;10526;50.850;12.928;2023-02-03T20:39:46;98171.44;;;4.85
20730;BMP280;10526;50.850;12.928;2023-02-03T20:44:11;98173.13;;;4.73
20730;BMP280;10526;50.850;12.928;2023-02-03T20:48:33;98177.25;;;4.55
20730;BMP280;10526;50.850;12.928;2023-02-03T20:52:55;98179.84;;;4.36
20730;BMP280;10526;50.850;12.928;2023-02-03T20:57:18;98182.16;;;4.21
20730;BMP280;10526;50.850;12.928;2023-02-03T21:01:40;98178.94;;;4.12
20730;BMP280;10526;50.850;12.928;2023-02-03T21:06:15;98174.84;;;3.99
20730;BMP280;10526;50.850;12.928;2023-02-03T21:10:37;98159.34;;;3.94
20730;BMP280;10526;50.850;12.928;2023-02-03T21:15:01;98181.44;;;3.89
20730;BMP280;10526;50.850;12.928;2023-02-03T21:19:30;98178.69;;;3.86
20730;BMP280;10526;50.850;12.928;2023-02-03T21:23:54;98180.91;;;3.84
20730;BMP280;10526;50.850;12.928;2023-02-03T21:28:24;98172.56;;;3.82
20730;BMP280;10526;50.850;12.928;2023-02-03T21:32:47;98169.09;;;3.78
20730;BMP280;10526;50.850;12.928;2023-02-03T21:37:36;98154.75;;;3.75
20730;BMP280;10526;50.850;12.928;2023-02-03T21:42:47;98175.97;;;3.66
20730;BMP280;10526;50.850;12.928;2023-02-03T21:47:11;98182.34;;;3.65
20730;BMP280;10526;50.850;12.928;2023-02-03T21:51:37;98180.81;;;3.64
20730;BMP280;10526;50.850;12.928;2023-02-03T21:56:17;98194.66;;;3.61
20730;BMP280;10526;50.850;12.928;2023-02-03T22:00:42;98198.38;;;3.60
20730;BMP280;10526;50.850;12.928;2023-02-03T22:05:14;98201.59;;;3.54
20730;BMP280;10526;50.850;12.928;2023-02-03T22:09:37;98207.19;;;3.52
20730;BMP280;10526;50.850;12.928;2023-02-03T22:14:00;98223.84;;;3.56
20730;BMP280;10526;50.850;12.928;2023-02-03T22:18:22;98225.38;;;3.57
20730;BMP280;10526;50.850;12.928;2023-02-03T22:22:44;98235.59;;;3.59
20730;BMP280;10526;50.850;12.928;2023-02-03T22:27:06;98244.69;;;3.61
20730;BMP280;10526;50.850;12.928;2023-02-03T22:31:28;98253.25;;;3.58
20730;BMP280;10526;50.850;12.928;2023-02-03T22:35:51;98256.22;;;3.57
20730;BMP280;10526;50.850;12.928;2023-02-03T22:40:13;98267.94;;;3.59
20730;BMP280;10526;50.850;12.928;2023-02-03T22:44:35;98274.53;;;3.53
20730;BMP280;10526;50.850;12.928;2023-02-03T22:48:57;98279.81;;;3.53
20730;BMP280;10526;50.850;12.928;2023-02-03T22:53:19;98296.31;;;3.50
20730;BMP280;10526;50.850;12.928;2023-02-03T22:57:41;98287.63;;;3.49
20730;BMP280;10526;50.850;12.928;2023-02-03T23:02:03;98288.72;;;3.48
20730;BMP280;10526;50.850;12.928;2023-02-03T23:06:26;98295.88;;;3.48
20730;BMP280;10526;50.850;12.928;2023-02-03T23:10:48;98285.22;;;3.44
20730;BMP280;10526;50.850;12.928;2023-02-03T23:15:10;98288.53;;;3.41
20730;BMP280;10526;50.850;12.928;2023-02-03T23:19:33;98296.09;;;3.43
20730;BMP280;10526;50.850;12.928;2023-02-03T23:23:55;98300.28;;;3.44
20730;BMP280;10526;50.850;12.928;2023-02-03T23:28:17;98312.66;;;3.43
20730;BMP280;10526;50.850;12.928;2023-02-03T23:32:39;98304.44;;;3.45
20730;BMP280;10526;50.850;12.928;2023-02-03T23:37:01;98300.38;;;3.47
20730;BMP280;10526;50.850;12.928;2023-02-03T23:41:24;98318.47;;;3.49
20730;BMP280;10526;50.850;12.928;2023-02-03T23:45:46;98312.50;;;3.52
20730;BMP280;10526;50.850;12.928;2023-02-03T23:50:12;98310.75;;;3.56
20730;BMP280;10526;50.850;12.928;2023-02-03T23:54:34;98302.28;;;3.63
20730;BMP280;10526;50.850;12.928;2023-02-03T23:58:56;98323.44;;;3.66
